Aviation Digital Data Service (ADDS)

Output produced by METARs form (2101 UTC 11 February 2016)
found at http://aviationweather.gov/adds/metars/
 
KCDW 112053Z 30017G24KT 10SM OVC065 M04/M19 A2997 RMK AO2 PK WND 31030/2026 SLP155 T10441189 53021
KMMU 111945Z 32012G26KT 10SM -SN SCT034 BKN042 OVC048 M06/M12 A2995
KFWN 112053Z AUTO 28012G22KT 240V310 10SM FEW048 BKN060 OVC075 M06/M19 A2995 RMK AO2 PK WND 26031/2011 SLP147 60000 T10611194 53023
KTEB 112051Z 30017G25KT 10SM BKN055 M04/M18 A2996 RMK AO2 PK WND 29032/1955 SLP145 T10441183 53021
KTEB 112030Z 1121/1218 29017G26KT P6SM BKN060 
     FM120000 30013G21KT P6SM SKC 
     FM120400 29008KT P6SM SKC 
     FM121500 24008KT P6SM SKC
       
KEWR 112051Z 27018G23KT 8SM -SN FEW012 SCT035 BKN050 M04/M13 A2997 RMK AO2 PK WND 27033/2008 SLP149 P0000 60000 T10441128 53017 $
KEWR 112030Z 1121/1224 28021G30KT P6SM BKN060 
     FM120000 29016G25KT P6SM SKC 
     FM120600 27009KT P6SM SKC 
     FM121600 24009KT P6SM FEW040 BKN120
       
KDXR 112053Z 28016G30KT 10SM BKN065 M07/M21 A2990 RMK AO2 PK WND 28032/2040 SLP130 T10671206 53023
KHPN 112056Z 29022G31KT 10SM BKN060 M06/M19 A2990 RMK AO2 PK WND 32036/2043 SLP136 T10611189 53021
KHPN 112030Z 1121/1218 30022G32KT P6SM BKN060 
     FM120000 30015G23KT P6SM SKC 
     FM120600 29008KT P6SM SKC 
     FM121600 24007KT P6SM SKC AMD NOT SKED
       
KABE 112051Z 28015G24KT 10SM SCT047 BKN055 BKN070 M06/M13 A3001 RMK AO2 PK WND 27027/2030 SLP169 60000 T10611133 53020 $
KABE 111741Z 1118/1218 28017G29KT P6SM VCSH BKN050 
     TEMPO 1119/1121 2SM -SHSN BKN030 
     FM112300 28010G20KT P6SM SCT050 
     FM120400 27006KT P6SM SCT150 
     FM121500 23007KT P6SM BKN120
       
KAVP 112054Z 31020G26KT 10SM BKN060 OVC075 M08/M18 A2995 RMK AO2 PK WND 31028/2042 SLP158 60000 T10781183 53021
KAVP 111738Z 1118/1218 30016G24KT P6SM BKN050 
     TEMPO 1118/1121 -SHSN 
     FM120200 27010KT P6SM SCT050 
     FM120900 23006KT P6SM SCT250
       
KSWF 112045Z 30024G38KT 20SM BKN060 M07/M19 A2991
KSWF 112030Z 1121/1224 29020G30KT P6SM BKN050 
     FM120000 29015G24KT P6SM SKC 
     FM120400 27007KT P6SM SKC 
     FM121800 24010KT P6SM SCT040 BKN100 AMD NOT SKED
       
KMSV 112055Z AUTO 32015G22KT 10SM SCT043 BKN049 OVC060 M10/M19 A2987 RMK AO1 52024
KPOU 112053Z AUTO 29015G25KT 10SM OVC070 M05/M20 A2993 RMK AO2 PK WND 27030/2032 SLP135 T10501200 53027
KPOU 111732Z 1118/1218 29015G25KT P6SM BKN050 BKN080 
     FM120200 28009KT P6SM SCT050 
     FM120700 VRB03KT P6SM SKC 
     FM121300 22005KT P6SM SCT100 BKN150
       
KACY 112054Z 27018G28KT 10SM OVC055 M04/M16 A3005 RMK AO2 PK WND 29036/2027 SLP177 T10391161 53020
KACY 111741Z 1118/1218 28022G34KT P6SM BKN050 
     FM112300 29015G26KT P6SM SCT050 
     FM120300 28011KT P6SM FEW150 
     FM121500 25007KT P6SM BKN120
       
KGON 112056Z AUTO 28020G29KT 10SM BKN070 M04/M16 A2984 RMK AO2 PK WND 27030/2046 SLP104 T10441161 53019
KGON 112030Z 1121/1218 28017G27KT P6SM BKN060 
     FM120200 30012G20KT P6SM FEW040 
     FM120600 29007KT P6SM SKC 
     FM121600 23008KT P6SM SKC
       


 (Extracted from FBUS31 KWNO 112000)
FD1US1
DATA BASED ON 111800Z    
VALID 120000Z   FOR USE 2000-0300Z. TEMPS NEG ABV 24000

FT  3000    6000    9000   12000   18000   24000  30000  34000  39000
BDL 2932 3042-25 3137-27 3040-31 2942-35 2854-41 276943 277644 268146
BGR 3228 3408-19 2309-26 2215-32 2319-39 2421-45 254248 255347 256648
CAR 3120 2821-21 2714-24 2011-29 1815-39 1917-48 243152 244251 255550
PWM 3128 2919-22 1806-27 2016-32 2618-37 2629-43 265145 266245 267246
EMI 2932 3238-21 3039-22 3052-24 2976-30 7911-35 780547 289748 278646
ACK 2934 2835-23 2739-26 2647-29 2654-35 2671-38 268341 259142 750045
BOS 2938 3120-23 2916-29 2825-31 2733-35 2747-41 266543 267444 268245
BML 3027 2720-23 2214-27 2508-31 2716-38 2623-44 264048 265147 266348
ACY 2936 3136-21 2943-22 2955-25 2874-30 2899-35 771144 279646 269546
ALB 2930 3139-24 3135-27 3135-32 3037-37 2945-42 286045 276746 277447
BUF 3026 3131-23 3235-27 3141-30 3151-36 3060-42 307047 297148 297748
JFK 3031 3045-23 3044-27 2949-28 2962-34 2876-39 278943 278944 269045
PLB 2928 3121-25 3123-28 3225-31 3019-39 2825-45 284048 285048 276249
SYR 3031 3036-25 3136-28 3135-31 3147-37 3153-43 296147 286547 287248
CLE 3014 3118-22 3125-23 3040-25 3178-28 8007-36 309949 299553 299150
CMH 3011 3217-20 3031-18 3054-19 3085-25 3092-35 299650 299954 299152
CVG 9900 3018-14 3039-13 3060-13 3073-23 2980-35 298448 298654 298755
AGC 2921 3026-22 3132-23 3045-24 3080-28 8011-35 299948 299651 298748
AVP 3127 3050-23 3147-28 3150-28 3058-34 2967-40 288045 288246 288446
PSB      3138-23 3140-24 3147-26 3062-33 2981-39 299645 299548 288748
ORF 2919 3033-14 2951-16 2869-14 2889-22 2898-34 279547 279948 269649
RIC 3020 2926-17 2947-17 2962-17 2991-22 7800-35 289948 279548 268749
ROA 3016 2931-14 2948-14 2969-12 2978-22 2985-34 298949 289052 287451
CRW 3009 3020-17 2942-16 3064-14 2980-23 2988-35 299049 299253 298051
EKN      3026-21 3040-18 2956-20 2991-23 2994-35 299349 299550 287948


 (Extracted from FBUS33 KWNO 112000)
FD3US3
DATA BASED ON 111800Z    
VALID 120600Z   FOR USE 0300-1200Z. TEMPS NEG ABV 24000

FT  3000    6000    9000   12000   18000   24000  30000  34000  39000
BDL 3033 3238-21 3030-24 2939-28 2956-34 2873-40 288748 289049 278547
BGR 3229 2520-20 2324-27 2423-33 2725-38 2735-45 275448 266449 267549
CAR 3226 2819-21 2623-26 2513-31 2108-40 2522-47 254052 265251 256652
PWM 3130 3017-22 2923-26 3031-30 2836-37 2851-42 276547 277148 267748
EMI 3123 3121-17 2934-19 2849-21 2986-24 2888-36 289849 780153 278250
ACK 3031 2933-20 2939-23 2846-28 2866-33 2777-38 278745 278946 269746
BOS 3029 3131-21 3032-24 2936-29 2955-35 2866-41 287746 277947 268446
BML 3030 3230-23 3122-26 3026-30 2930-39 2945-44 286049 276750 277649
ACY 3129 3127-18 2937-20 2851-22 2887-25 2899-36 780549 780351 268649
ALB 3026 3237-23 3136-26 3039-29 2951-35 2967-41 287949 288450 278148
BUF 2723 3025-23 2935-25 2939-29 2957-33 2974-40 790050 289853 288650
JFK 3029 3135-20 3036-22 2947-25 2871-31 2895-36 780748 289650 278547
PLB 3026 3130-25 3033-27 3030-31 2938-38 2849-45 286550 277051 277950
SYR 3024 3034-24 3037-26 3041-29 2952-35 2969-41 288151 289052 288350
CLE 2617 2921-20 2830-20 2948-21 2976-26 2977-37 288051 289155 288252
CMH 2710 2721-16 2935-15 2950-16 2969-25 2870-38 287849 288354 287952
CVG 2408 2923-10 2933-13 2943-14 2857-25 2858-38 287348 287653 287252
AGC 2914 2918-19 2933-19 2952-19 2976-25 2878-37 288849 289554 288351
AVP 3125 3135-21 3035-23 2942-25 2863-31 2986-37 780449 289853 288749
PSB      3123-19 2930-22 2942-24 2974-27 2994-36 289750 780254 288750
ORF 3215 2835-13 2853-11 2866-10 2877-22 2782-35 278646 268952 268555
RIC 3217 2831-13 2848-13 2963-12 2877-23 2883-36 278646 278851 268254
ROA 3009 2730-10 2840-10 2846-12 2764-23 2777-36 278047 278052 277454
CRW 9900 2828-12 2940-12 2947-14 2860-24 2772-37 278147 278053 277353
EKN      2824-17 2941-14 2957-14 2872-24 2876-38 288648 278754 287852